createdAt,value
2022-08-29T00:01:12.115Z,22.80
2022-08-29T00:03:39.721Z,22.80
2022-08-29T00:06:08.404Z,22.80
2022-08-29T00:08:35.412Z,22.70
2022-08-29T00:11:03.024Z,22.70
2022-08-29T00:13:30.021Z,22.70
2022-08-29T00:15:56.967Z,22.70
2022-08-29T00:18:23.978Z,22.70
2022-08-29T00:20:51.216Z,22.60
2022-08-29T00:23:18.558Z,22.70
2022-08-29T00:25:45.795Z,22.60
2022-08-29T00:28:12.953Z,22.60
2022-08-29T00:30:40.777Z,22.60
2022-08-29T00:33:08.609Z,22.60
2022-08-29T00:35:38.426Z,22.50
2022-08-29T00:38:09.047Z,22.60
2022-08-29T00:40:47.858Z,22.50
2022-08-29T00:43:23.041Z,22.50
2022-08-29T00:46:01.110Z,22.50
2022-08-29T00:48:28.841Z,22.40
2022-08-29T00:51:01.238Z,22.50
2022-08-29T00:53:33.974Z,22.50
2022-08-29T00:56:02.747Z,22.50
2022-08-29T00:58:37.962Z,22.40
2022-08-29T01:01:05.551Z,22.40
2022-08-29T01:03:34.601Z,22.40
2022-08-29T01:06:02.890Z,22.40
2022-08-29T01:08:30.498Z,22.40
2022-08-29T01:11:15.859Z,22.40
2022-08-29T01:13:47.124Z,22.30
2022-08-29T01:16:16.141Z,22.30
2022-08-29T01:18:45.559Z,22.30
2022-08-29T01:21:43.611Z,22.20
2022-08-29T01:24:16.342Z,22.30
2022-08-29T01:26:46.290Z,22.20
2022-08-29T01:29:14.651Z,22.20
2022-08-29T01:31:57.108Z,22.20
2022-08-29T01:34:28.282Z,22.10
2022-08-29T01:36:59.395Z,22.10
2022-08-29T01:39:31.177Z,22.10
2022-08-29T01:42:00.170Z,22.10
2022-08-29T01:44:27.178Z,22.10
2022-08-29T01:47:02.509Z,22.10
2022-08-29T01:49:32.852Z,22.10
2022-08-29T01:52:00.115Z,22.20
2022-08-29T01:54:29.678Z,22.10
2022-08-29T01:56:57.109Z,22.10
2022-08-29T01:59:27.309Z,22.20
2022-08-29T02:02:26.504Z,22.20
2022-08-29T02:04:58.504Z,22.10
2022-08-29T02:07:26.531Z,22.10
2022-08-29T02:09:54.005Z,22.10
2022-08-29T02:12:21.292Z,22.10
2022-08-29T02:14:50.698Z,22.10
2022-08-29T02:17:18.108Z,22.10
2022-08-29T02:19:46.025Z,22.10
2022-08-29T02:22:13.720Z,22.10
2022-08-29T02:24:42.772Z,22.10
2022-08-29T02:27:12.650Z,22.10
2022-08-29T02:29:39.789Z,22.10
2022-08-29T02:32:11.958Z,22.10
2022-08-29T02:34:39.051Z,22.10
2022-08-29T02:37:06.432Z,22.10
2022-08-29T02:39:34.518Z,22.00
2022-08-29T02:42:02.141Z,22.00
2022-08-29T02:44:29.421Z,22.00
2022-08-29T02:46:56.534Z,22.00
2022-08-29T02:49:23.616Z,22.00
2022-08-29T02:51:50.531Z,22.00
2022-08-29T02:54:17.643Z,22.00
2022-08-29T02:56:44.559Z,22.00
2022-08-29T02:59:12.124Z,22.00
2022-08-29T03:01:39.381Z,22.00
2022-08-29T03:04:06.467Z,22.00
2022-08-29T03:06:33.594Z,21.90
2022-08-29T03:09:00.724Z,21.90
2022-08-29T03:11:28.761Z,21.90
2022-08-29T03:13:57.610Z,21.90
2022-08-29T03:16:26.287Z,21.90
2022-08-29T03:18:53.719Z,21.90
2022-08-29T03:21:25.070Z,21.90
2022-08-29T03:23:52.978Z,21.90
2022-08-29T03:26:20.592Z,21.90
2022-08-29T03:28:48.276Z,21.90
2022-08-29T03:31:15.891Z,21.90
2022-08-29T03:33:43.593Z,21.80
2022-08-29T03:36:13.907Z,21.80
2022-08-29T03:38:43.640Z,21.80
2022-08-29T03:41:11.151Z,21.70
2022-08-29T03:43:38.226Z,21.70
2022-08-29T03:46:05.356Z,21.80
2022-08-29T03:48:33.822Z,21.70
2022-08-29T03:51:00.898Z,21.70
2022-08-29T03:53:28.419Z,21.70
2022-08-29T03:55:57.763Z,21.70
2022-08-29T03:58:24.828Z,21.80
2022-08-29T04:00:51.815Z,21.80
2022-08-29T04:03:20.118Z,21.80
2022-08-29T04:05:53.188Z,21.80
2022-08-29T04:08:22.963Z,21.80
2022-08-29T04:10:50.081Z,21.80
2022-08-29T04:13:17.117Z,21.70
2022-08-29T04:15:44.126Z,21.70
2022-08-29T04:18:11.933Z,21.70
2022-08-29T04:20:44.824Z,21.70
2022-08-29T04:23:13.271Z,21.70
2022-08-29T04:25:42.393Z,21.70
2022-08-29T04:28:12.681Z,21.70
2022-08-29T04:30:40.492Z,21.80
2022-08-29T04:33:07.674Z,21.70
2022-08-29T04:35:37.261Z,21.80
2022-08-29T04:38:04.266Z,21.70
2022-08-29T04:40:31.611Z,21.70
2022-08-29T04:42:59.558Z,21.70
2022-08-29T04:45:36.592Z,21.70
2022-08-29T04:48:05.028Z,21.70
2022-08-29T04:50:32.010Z,21.60
2022-08-29T04:52:59.136Z,21.70
2022-08-29T04:55:26.068Z,21.70
2022-08-29T04:57:56.415Z,21.70
2022-08-29T05:00:28.256Z,21.70
2022-08-29T05:02:55.912Z,21.70
2022-08-29T05:05:23.033Z,21.70
2022-08-29T05:07:49.995Z,21.70
2022-08-29T05:10:19.800Z,21.70
2022-08-29T05:12:47.391Z,21.80
2022-08-29T05:15:15.702Z,21.80
2022-08-29T05:17:43.382Z,21.90
2022-08-29T05:20:11.000Z,22.00
2022-08-29T05:22:38.935Z,22.00
2022-08-29T05:25:06.611Z,22.00
2022-08-29T05:27:33.667Z,22.10
2022-08-29T05:30:02.058Z,22.20
2022-08-29T05:32:29.108Z,22.30
2022-08-29T05:34:56.060Z,22.40
2022-08-29T05:37:23.806Z,22.50
2022-08-29T05:39:51.218Z,22.70
2022-08-29T05:42:20.970Z,23.30
2022-08-29T05:44:48.679Z,24.10
2022-08-29T05:47:17.412Z,24.60
2022-08-29T05:49:45.972Z,24.70
2022-08-29T05:52:15.720Z,24.70
2022-08-29T05:54:44.095Z,24.70
2022-08-29T05:57:18.168Z,24.60
2022-08-29T05:59:50.332Z,24.50
2022-08-29T06:02:18.711Z,24.70
2022-08-29T06:04:46.019Z,25.60
2022-08-29T06:07:13.667Z,26.40
2022-08-29T06:09:41.946Z,27.20
2022-08-29T06:12:09.932Z,27.80
2022-08-29T06:14:37.462Z,28.20
2022-08-29T06:17:07.987Z,28.70
2022-08-29T06:19:37.471Z,29.20
2022-08-29T06:22:09.986Z,29.70
2022-08-29T06:24:38.904Z,30.20
2022-08-29T06:27:06.659Z,30.60
2022-08-29T06:29:41.712Z,31.10
2022-08-29T06:32:10.543Z,31.60
2022-08-29T06:34:37.505Z,32.10
2022-08-29T06:37:04.532Z,32.50
2022-08-29T06:39:31.723Z,33.00
2022-08-29T06:41:58.672Z,33.40
2022-08-29T06:44:26.643Z,33.80
2022-08-29T06:46:58.147Z,34.20
2022-08-29T06:49:25.837Z,34.50
2022-08-29T06:51:57.732Z,34.60
2022-08-29T06:54:28.041Z,34.70
2022-08-29T06:56:56.569Z,35.10
2022-08-29T06:59:23.993Z,35.40
2022-08-29T07:01:51.092Z,35.70
2022-08-29T07:04:20.616Z,36.10
2022-08-29T07:06:49.327Z,36.10
2022-08-29T07:09:16.648Z,35.90
2022-08-29T07:11:44.310Z,35.70
2022-08-29T07:14:12.176Z,35.80
2022-08-29T07:16:40.571Z,36.10
2022-08-29T07:19:08.276Z,36.50
2022-08-29T07:21:35.636Z,36.80
2022-08-29T07:24:02.844Z,37.00
2022-08-29T07:26:36.882Z,37.30
2022-08-29T07:29:09.127Z,37.30
2022-08-29T07:31:36.403Z,37.30
2022-08-29T07:34:03.451Z,37.40
2022-08-29T07:36:34.594Z,37.50
2022-08-29T07:39:04.278Z,37.80
2022-08-29T07:41:31.292Z,38.00
2022-08-29T07:43:58.310Z,38.00
2022-08-29T07:46:27.007Z,37.90
2022-08-29T07:48:54.212Z,38.00
2022-08-29T07:51:23.636Z,38.30
2022-08-29T07:53:52.294Z,38.20
2022-08-29T07:56:24.518Z,38.00
2022-08-29T07:58:53.207Z,37.80
2022-08-29T08:01:21.612Z,37.70
2022-08-29T08:03:50.875Z,37.60
2022-08-29T08:06:19.872Z,37.60
2022-08-29T08:08:47.949Z,37.60
2022-08-29T08:11:15.652Z,37.70
2022-08-29T08:13:42.838Z,38.00
2022-08-29T08:16:13.448Z,38.20
2022-08-29T08:18:42.179Z,38.30
2022-08-29T08:21:10.182Z,38.50
2022-08-29T08:23:38.498Z,38.70
2022-08-29T08:26:06.267Z,38.80
2022-08-29T08:28:33.658Z,39.00
2022-08-29T08:31:05.837Z,39.20
2022-08-29T08:33:34.867Z,39.30
2022-08-29T08:36:03.535Z,39.30
2022-08-29T08:38:32.213Z,39.40
2022-08-29T08:41:07.518Z,39.60
2022-08-29T08:43:56.607Z,39.90
2022-08-29T08:46:34.290Z,40.00
2022-08-29T08:49:05.041Z,40.10
2022-08-29T08:51:35.607Z,40.20
2022-08-29T08:54:07.527Z,40.00
2022-08-29T08:56:36.964Z,40.20
2022-08-29T08:59:16.276Z,40.30
2022-08-29T09:02:20.029Z,40.10
2022-08-29T09:04:48.175Z,40.10
2022-08-29T09:07:15.038Z,40.50
2022-08-29T09:10:06.374Z,40.70
2022-08-29T09:12:42.022Z,40.80
2022-08-29T09:15:14.184Z,40.70
2022-08-29T09:17:57.934Z,40.80
2022-08-29T09:20:31.639Z,41.00
2022-08-29T09:23:19.331Z,40.60
2022-08-29T09:25:47.421Z,40.50
2022-08-29T09:28:15.894Z,40.60
2022-08-29T09:30:46.122Z,41.10
2022-08-29T09:33:15.802Z,41.40
2022-08-29T09:35:53.050Z,41.60
2022-08-29T09:38:24.052Z,41.90
2022-08-29T09:41:07.726Z,41.90
2022-08-29T09:43:40.555Z,42.20
2022-08-29T09:46:10.496Z,42.10
2022-08-29T09:48:40.542Z,42.00
2022-08-29T09:51:28.986Z,41.80
2022-08-29T09:54:37.354Z,42.00
2022-08-29T09:57:19.456Z,42.10
2022-08-29T10:00:08.679Z,42.10
2022-08-29T10:03:04.891Z,42.30
2022-08-29T10:05:45.258Z,42.40
2022-08-29T10:08:55.855Z,42.10
2022-08-29T10:11:33.271Z,41.90
2022-08-29T10:14:14.864Z,41.70
2022-08-29T10:17:23.793Z,41.30
2022-08-29T10:19:51.826Z,40.80
2022-08-29T10:22:29.537Z,40.70
2022-08-29T10:25:16.276Z,40.60
2022-08-29T10:27:48.679Z,40.90
2022-08-29T10:30:17.489Z,41.30
2022-08-29T10:32:59.809Z,41.50
2022-08-29T10:35:42.435Z,41.70
2022-08-29T10:38:13.602Z,41.90
2022-08-29T10:40:48.678Z,41.70
2022-08-29T10:43:39.763Z,41.60
2022-08-29T10:46:15.755Z,41.70
2022-08-29T10:49:18.117Z,41.50
2022-08-29T10:52:27.107Z,41.20
2022-08-29T10:55:42.153Z,40.70
2022-08-29T10:58:18.181Z,40.10
2022-08-29T11:00:51.760Z,39.40
2022-08-29T11:03:27.754Z,39.50
2022-08-29T11:06:01.236Z,39.50
2022-08-29T11:08:38.490Z,39.20
2022-08-29T11:11:05.645Z,39.00
2022-08-29T11:13:42.193Z,38.50
2022-08-29T11:16:33.739Z,37.20
2022-08-29T11:19:10.172Z,36.00
2022-08-29T11:22:01.082Z,35.00
2022-08-29T11:24:34.860Z,35.00
2022-08-29T11:27:08.206Z,35.80
2022-08-29T11:29:48.415Z,36.00
2022-08-29T11:32:53.561Z,35.40
2022-08-29T11:35:37.558Z,34.60
2022-08-29T11:38:19.447Z,33.70
2022-08-29T11:43:55.119Z,33.50
2022-08-29T11:46:44.172Z,33.70
2022-08-29T11:49:33.821Z,34.00
2022-08-29T11:52:25.476Z,35.00
2022-08-29T11:55:11.037Z,34.60
2022-08-29T11:57:46.104Z,34.20
2022-08-29T12:00:30.348Z,34.30
2022-08-29T12:02:57.395Z,34.80
2022-08-29T12:05:51.683Z,34.90
2022-08-29T12:08:45.990Z,35.10
2022-08-29T12:11:13.337Z,34.90
2022-08-29T12:13:49.179Z,35.40
2022-08-29T12:16:19.455Z,35.10
2022-08-29T12:18:52.809Z,35.10
2022-08-29T12:21:37.695Z,36.30
2022-08-29T12:24:07.979Z,37.60
2022-08-29T12:26:45.789Z,38.60
2022-08-29T12:29:31.154Z,39.60
2022-08-29T12:32:22.792Z,40.30
2022-08-29T12:35:35.964Z,41.00
2022-08-29T12:38:22.826Z,41.90
2022-08-29T12:41:16.568Z,41.90
2022-08-29T12:43:45.502Z,42.00
2022-08-29T12:46:30.877Z,42.20
2022-08-29T12:49:20.022Z,42.70
2022-08-29T12:52:10.050Z,43.00
2022-08-29T12:54:41.424Z,43.30
2022-08-29T12:57:19.647Z,43.20
2022-08-29T12:59:52.687Z,42.40
2022-08-29T13:02:35.988Z,42.30
2022-08-29T13:05:17.586Z,42.20
2022-08-29T13:07:58.325Z,41.70
2022-08-29T13:10:26.240Z,41.70
2022-08-29T13:13:14.934Z,41.60
2022-08-29T13:15:42.272Z,40.50
2022-08-29T13:18:14.949Z,39.50
2022-08-29T13:20:45.743Z,39.50
2022-08-29T13:23:12.739Z,40.10
2022-08-29T13:25:53.586Z,40.70
2022-08-29T13:28:45.422Z,40.50
2022-08-29T13:31:32.910Z,39.50
2022-08-29T13:34:09.177Z,38.60
2022-08-29T13:36:47.823Z,38.20
2022-08-29T13:39:17.609Z,38.20
2022-08-29T13:41:52.979Z,37.80
2022-08-29T13:44:27.547Z,38.20
2022-08-29T13:46:59.306Z,38.90
2022-08-29T13:49:31.983Z,39.30
2022-08-29T13:52:00.228Z,39.20
2022-08-29T13:54:31.332Z,38.10
2022-08-29T13:57:00.435Z,37.20
2022-08-29T13:59:32.534Z,36.80
2022-08-29T14:02:11.477Z,36.80
2022-08-29T14:04:40.771Z,36.80
2022-08-29T14:07:42.003Z,36.70
2022-08-29T14:10:10.069Z,36.70
2022-08-29T14:12:37.442Z,36.60
2022-08-29T14:15:09.784Z,36.50
2022-08-29T14:17:39.541Z,36.50
2022-08-29T14:20:09.830Z,36.40
2022-08-29T14:22:37.584Z,36.20
2022-08-29T14:25:06.840Z,36.10
2022-08-29T14:27:34.090Z,36.10
2022-08-29T14:30:01.107Z,36.00
2022-08-29T14:32:28.065Z,36.00
2022-08-29T14:34:55.155Z,36.00
2022-08-29T14:37:23.930Z,36.10
2022-08-29T14:39:52.037Z,36.00
2022-08-29T14:42:20.237Z,36.10
2022-08-29T14:44:47.379Z,36.30
2022-08-29T14:47:14.415Z,36.50
2022-08-29T14:49:41.858Z,36.70
2022-08-29T14:52:09.033Z,37.00
2022-08-29T14:54:36.012Z,37.20
2022-08-29T14:57:03.056Z,37.50
2022-08-29T14:59:29.995Z,37.80
2022-08-29T15:01:56.988Z,38.00
2022-08-29T15:04:35.692Z,38.10
2022-08-29T15:07:07.106Z,38.10
2022-08-29T15:09:34.335Z,37.50
2022-08-29T15:12:01.394Z,36.80
2022-08-29T15:14:30.238Z,36.60
2022-08-29T15:16:57.232Z,36.80
2022-08-29T15:19:53.640Z,36.80
2022-08-29T15:22:12.221Z,36.70
2022-08-29T15:24:39.604Z,36.40
2022-08-29T15:27:07.495Z,35.90
2022-08-29T15:29:37.371Z,35.40
2022-08-29T15:32:05.160Z,34.80
2022-08-29T15:34:32.929Z,34.30
2022-08-29T15:37:00.968Z,34.00
2022-08-29T15:39:28.666Z,33.80
2022-08-29T15:41:57.465Z,33.50
2022-08-29T15:44:24.550Z,33.20
2022-08-29T15:46:52.499Z,33.00
2022-08-29T15:49:21.943Z,32.70
2022-08-29T15:51:49.471Z,32.70
2022-08-29T15:54:17.018Z,32.60
2022-08-29T15:56:44.411Z,32.50
2022-08-29T15:59:13.623Z,32.40
2022-08-29T16:01:47.045Z,32.40
2022-08-29T16:04:18.478Z,32.40
2022-08-29T16:06:45.877Z,32.50
2022-08-29T16:09:15.571Z,32.50
2022-08-29T16:11:47.534Z,32.50
2022-08-29T16:17:02.592Z,32.40
2022-08-29T16:19:29.767Z,32.40
2022-08-29T16:22:00.250Z,32.30
2022-08-29T16:24:29.408Z,32.20
2022-08-29T16:26:56.859Z,32.00
2022-08-29T16:29:26.578Z,31.80
2022-08-29T16:31:57.936Z,31.70
2022-08-29T16:34:26.758Z,31.60
2022-08-29T16:36:58.143Z,31.50
2022-08-29T16:39:26.644Z,31.40
2022-08-29T16:41:53.962Z,31.20
2022-08-29T16:44:21.652Z,31.00
2022-08-29T16:46:48.727Z,30.90
2022-08-29T16:49:16.249Z,30.80
2022-08-29T16:51:43.235Z,30.70
2022-08-29T16:54:10.471Z,30.60
2022-08-29T16:56:39.669Z,30.50
2022-08-29T16:59:07.589Z,30.40
2022-08-29T17:01:44.853Z,30.20
2022-08-29T17:04:15.430Z,30.10
2022-08-29T17:06:43.310Z,30.00
2022-08-29T17:09:10.402Z,29.90
2022-08-29T17:11:38.539Z,29.80
2022-08-29T17:14:07.570Z,29.70
2022-08-29T17:16:35.255Z,29.60
2022-08-29T17:19:02.383Z,29.50
2022-08-29T17:21:30.132Z,29.40
2022-08-29T17:23:57.156Z,29.30
2022-08-29T17:26:24.795Z,29.20
2022-08-29T17:28:52.503Z,29.10
2022-08-29T17:31:19.653Z,29.10
2022-08-29T17:33:46.915Z,29.00
2022-08-29T17:36:14.449Z,28.90
2022-08-29T17:38:45.134Z,28.90
2022-08-29T17:41:18.081Z,28.80
2022-08-29T17:43:49.997Z,28.70
2022-08-29T17:46:18.944Z,28.70
2022-08-29T17:48:46.134Z,28.60
2022-08-29T17:51:14.114Z,28.40
2022-08-29T17:53:42.765Z,28.40
2022-08-29T17:56:16.988Z,28.30
2022-08-29T17:58:44.499Z,28.20
2022-08-29T18:01:16.310Z,28.10
2022-08-29T18:03:45.458Z,28.00
2022-08-29T18:06:14.679Z,27.90
2022-08-29T18:08:47.787Z,27.80
2022-08-29T18:11:16.466Z,27.70
2022-08-29T18:13:43.740Z,27.60
2022-08-29T18:16:11.593Z,27.60
2022-08-29T18:18:39.120Z,27.50
2022-08-29T18:21:06.558Z,27.40
2022-08-29T18:23:33.881Z,27.40
2022-08-29T18:26:02.118Z,27.30
2022-08-29T18:28:29.706Z,27.30
2022-08-29T18:30:57.709Z,27.20
2022-08-29T18:33:38.711Z,27.20
2022-08-29T18:36:12.795Z,27.10
2022-08-29T18:38:40.361Z,27.10
2022-08-29T18:41:07.687Z,27.10
2022-08-29T18:43:34.971Z,27.00
2022-08-29T18:46:03.768Z,27.00
2022-08-29T18:48:31.852Z,26.90
2022-08-29T18:50:59.901Z,26.90
2022-08-29T18:53:30.077Z,26.80
2022-08-29T18:55:58.010Z,26.70
2022-08-29T18:58:28.651Z,26.70
2022-08-29T19:00:56.630Z,26.70
2022-08-29T19:03:23.715Z,26.60
2022-08-29T19:05:52.345Z,26.50
2022-08-29T19:08:21.311Z,26.50
2022-08-29T19:10:48.422Z,26.40
2022-08-29T19:13:16.910Z,26.40
2022-08-29T19:15:47.292Z,26.40
2022-08-29T19:18:15.738Z,26.40
2022-08-29T19:21:01.897Z,26.40
2022-08-29T19:23:38.297Z,26.40
2022-08-29T19:26:09.148Z,26.40
2022-08-29T19:28:36.690Z,26.40
2022-08-29T19:31:06.502Z,26.30
2022-08-29T19:33:38.136Z,26.40
2022-08-29T19:36:08.564Z,26.40
2022-08-29T19:38:35.972Z,26.30
2022-08-29T19:41:05.971Z,26.30
2022-08-29T19:43:33.978Z,26.30
2022-08-29T19:46:02.439Z,26.30
2022-08-29T19:48:29.502Z,26.20
2022-08-29T19:50:57.048Z,26.20
2022-08-29T19:53:26.901Z,26.20
2022-08-29T19:55:56.994Z,26.10
2022-08-29T19:58:31.321Z,26.10
2022-08-29T20:01:01.854Z,26.10
2022-08-29T20:03:29.650Z,26.00
2022-08-29T20:05:57.222Z,26.00
2022-08-29T20:08:24.320Z,25.90
2022-08-29T20:10:53.481Z,25.90
2022-08-29T20:13:20.600Z,25.90
2022-08-29T20:15:47.558Z,25.90
2022-08-29T20:18:15.177Z,25.90
2022-08-29T20:20:45.830Z,25.90
2022-08-29T20:23:13.154Z,25.90
2022-08-29T20:25:40.417Z,25.90
2022-08-29T20:28:07.452Z,25.90
2022-08-29T20:30:35.652Z,25.80
2022-08-29T20:33:04.621Z,25.80
2022-08-29T20:35:50.061Z,25.80
2022-08-29T20:38:17.212Z,25.80
2022-08-29T20:40:47.859Z,25.70
2022-08-29T20:43:19.300Z,25.70
2022-08-29T20:45:47.196Z,25.70
2022-08-29T20:48:14.617Z,25.70
2022-08-29T20:50:42.407Z,25.70
2022-08-29T20:53:14.226Z,25.60
2022-08-29T20:55:43.758Z,25.70
2022-08-29T20:58:10.736Z,25.60
2022-08-29T21:00:38.275Z,25.70
2022-08-29T21:03:23.663Z,25.70
2022-08-29T21:05:50.705Z,25.70
2022-08-29T21:08:20.359Z,25.70
2022-08-29T21:10:48.326Z,25.80
2022-08-29T21:13:17.613Z,25.80
2022-08-29T21:15:45.471Z,25.80
2022-08-29T21:18:15.793Z,25.80
2022-08-29T21:20:53.969Z,25.90
2022-08-29T21:23:23.613Z,25.80
2022-08-29T21:25:55.993Z,25.80
2022-08-29T21:28:24.797Z,25.80
2022-08-29T21:30:53.006Z,25.70
2022-08-29T21:33:20.751Z,25.70
2022-08-29T21:35:49.926Z,25.70
2022-08-29T21:38:18.359Z,25.60
2022-08-29T21:40:50.586Z,25.60
2022-08-29T21:43:19.681Z,25.50
2022-08-29T21:45:47.604Z,25.40
2022-08-29T21:48:14.612Z,25.40
2022-08-29T21:50:41.687Z,25.30
2022-08-29T21:53:14.632Z,25.30
2022-08-29T21:55:41.912Z,25.20
2022-08-29T21:58:08.900Z,25.20
2022-08-29T22:00:36.991Z,25.10
2022-08-29T22:03:06.554Z,25.10
2022-08-29T22:05:33.878Z,25.10
2022-08-29T22:08:03.217Z,25.10
2022-08-29T22:10:34.210Z,25.00
2022-08-29T22:13:02.336Z,25.00
2022-08-29T22:15:48.492Z,25.00
2022-08-29T22:18:15.750Z,24.90
2022-08-29T22:20:44.396Z,24.90
2022-08-29T22:23:11.541Z,24.90
2022-08-29T22:25:38.558Z,24.90
2022-08-29T22:28:06.287Z,24.90
2022-08-29T22:30:33.569Z,24.90
2022-08-29T22:33:01.469Z,24.80
2022-08-29T22:35:29.063Z,24.90
2022-08-29T22:37:56.078Z,24.80
2022-08-29T22:40:23.405Z,24.90
2022-08-29T22:42:50.480Z,24.90
2022-08-29T22:45:18.428Z,24.90
2022-08-29T22:47:46.795Z,24.90
2022-08-29T22:50:18.384Z,24.80
2022-08-29T22:52:45.862Z,24.90
2022-08-29T22:57:47.927Z,24.80
2022-08-29T23:00:19.667Z,24.80
2022-08-29T23:02:47.223Z,24.70
2022-08-29T23:05:15.092Z,24.70
2022-08-29T23:07:42.177Z,24.60
2022-08-29T23:10:10.487Z,24.60
2022-08-29T23:12:37.787Z,24.60
2022-08-29T23:15:07.654Z,24.60
2022-08-29T23:17:34.597Z,24.60
2022-08-29T23:20:01.705Z,24.60
2022-08-29T23:22:28.693Z,24.60
2022-08-29T23:24:58.750Z,24.60
2022-08-29T23:27:31.394Z,24.60
2022-08-29T23:29:59.895Z,24.60
2022-08-29T23:32:27.682Z,24.50
2022-08-29T23:34:55.269Z,24.50
2022-08-29T23:37:22.315Z,24.50
2022-08-29T23:39:49.281Z,24.50
2022-08-29T23:42:16.251Z,24.50
2022-08-29T23:44:43.208Z,24.50
2022-08-29T23:47:10.208Z,24.50
2022-08-29T23:49:37.174Z,24.50
2022-08-29T23:52:05.243Z,24.40
2022-08-29T23:54:32.209Z,24.40
2022-08-29T23:56:59.154Z,24.30
2022-08-29T23:59:44.487Z,24.30
